AirNav   TITAN Aviation Fuels
 
 1428 users online  

M24 Dean Griffin Memorial Airport
Wiggins, Mississippi, USA

GOING TO WIGGINS?


FAA INFORMATION EFFECTIVE 20 MAY 2021

Location

FAA Identifier: M24
Lat/Long: 30-50-34.8000N 089-09-41.4000W
30-50.580000N 089-09.690000W
30.8430000,-89.1615000
(estimated)
Elevation: 273 ft. / 83.2 m (surveyed)
Variation: 02E (1985)
From city: 1 mile W of WIGGINS, MS
Time zone: UTC -5 (UTC -6 during Standard Time)
Zip code: 39577

Airport Operations

Airport use: Open to the public
Control tower: no
ARTCC: HOUSTON CENTER
FSS: GREENWOOD FLIGHT SERVICE STATION
NOTAMs facility: GWO (NOTAM-D service available)
Attendance: 0800-1700
Wind indicator: lighted
Segmented circle: no
Lights: ACTVT MIRL RWY 17/35 - CTAF. PAPI RWY 17 & 35 OPRS CONSLY.
Beacon: white-green (lighted land airport)
Operates sunset to sunrise.

Airport Communications

CTAF/UNICOM: 122.8

Nearby radio navigation aids

VOR radial/distance  VOR name  Freq  Var
GPTr349/26.5GULFPORT VORTAC109.0002E
PCUr055/33.9PICAYUNE VOR/DME114.1505E
LBYr160/35.7EATON VORTAC110.6005E
GCVr241/38.0GREENE COUNTY VORTAC115.7005E

 
NDB name  Hdg/Dist  Freq  Var  ID
BOGALUSA094/36.235300WGVB --. ...- -...

Airport Services

Fuel available: 100LL
100LL:FUEL AVBL 24/7 WITH CREDIT CARD.
Parking: tiedowns
Airframe service: NONE
Bottled oxygen: NONE
Bulk oxygen: NONE

Runway Information

Runway 17/35

Dimensions: 3500 x 75 ft. / 1067 x 23 m
Surface: asphalt, in fair condition
Weight bearing capacity: 
PCN 10 /F/A/Y/T
Single wheel: 20.0
Runway edge lights: medium intensity
RUNWAY 17  RUNWAY 35
Latitude: 30-50.866725N30-50.293587N
Longitude: 089-09.729418W089-09.649293W
Elevation: 273.0 ft.245.3 ft.
Traffic pattern: leftleft
Runway heading: 171 magnetic, 173 true351 magnetic, 353 true
Displaced threshold: 500 ft.no
Markings: basic, in fair conditionbasic, in fair condition
Visual slope indicator: 2-light PAPI on left (3.00 degrees glide path)2-light PAPI on left (3.00 degrees glide path)
Touchdown point: yes, no lightsyes, no lights
Obstructions: 41 ft. tree, 1200 ft. from runway, 150 ft. left of centerline, 24:1 slope to clear
APCH SLP 36:1 TO DSPLCD THR.
62 ft. trees, 1440 ft. from runway, 20:1 slope to clear

Airport Ownership and Management from official FAA records

Ownership: Publicly-owned
Owner: CITY OF WIGGINS-STONE CO
117 FIRST STREET
WIGGINS, MS 39577
Phone 601-928-7221
Manager: DURON HATTEN
P.O. BOX 219
WIGGINS, MS 39577
Phone 601-928-7221

Airport Operational Statistics

Aircraft based on the field: 11
Single engine airplanes: 10
Multi engine airplanes: 1
    
Aircraft operations: avg 35/day *
51% local general aviation
45% transient general aviation
4% military
* for 12-month period ending 22 May 2019

Additional Remarks

FOR CD CTC GULFPORT APCH AT 228-265-6151, WHEN APCH CLSD CTC HOUSTON ARTCC AT 281-230-5622.

Instrument Procedures

There are no published instrument procedures at M24.

Some nearby airports with instrument procedures:

M13 - Poplarville-Pearl River County Airport (18 nm W)
KHBG - Hattiesburg Bobby L Chain Municipal Airport (26 nm N)
KGPT - Gulfport-Biloxi International Airport (27 nm S)
KBIX - Keesler Air Force Base (29 nm SE)
KHSA - Stennis International Airport (32 nm SW)
 
Loc | Ops | Rwys | IFR | FBO | Links
Com | Nav | Svcs | Stats | Notes
Area around M24 (Dean Griffin Memorial Airport)
 
Road maps at: MapQuest Bing Google
 
Aerial photo
No photo
 
Sectional chart

 
Airport distance calculator
Flying to Dean Griffin Memorial Airport? Find the distance to fly.

From to M24

Sunrise and sunset
Times for 16-Jun-2021
 Local
(UTC-5)
 Zulu
(UTC)
Morning civil twilight05:2610:26
Sunrise05:5410:54
Sunset20:0001:00
Evening civil twilight20:2801:28

Current date and time
Zulu (UTC)  16-Jun-2021 21:39:59
Local (UTC-5)  16-Jun-2021 16:39:59
 
METAR
KHBG 
26nm N 
162053Z AUTO 02006KT 10SM CLR 32/14 A3000 RMK AO2 SLP155 T03170139 55005
KGPT 
26nm S 
162053Z 17005KT 10SM FEW065 32/20 A2995 RMK AO2 SLP141 T03170200 56007
KBIX 
29nm SE 
162056Z AUTO 18008KT 10SM CLR 31/21 A2995 RMK AO2 SLP145 T03110210 56008
KHSA 
32nm SW 
162050Z 14006KT 7SM SCT060 33/19 A2995
KMJD 
33nm SW 
162115Z AUTO 06004KT 10SM CLR 33/15 A2996 RMK AO2
KBXA 
36nm W 
162115Z AUTO 02003KT CLR 33/13 A2998 RMK AO2 T03310134
KPIB 
38nm N 
162056Z AUTO 07007KT 10SM CLR 31/18 A3001 RMK AO2 SLP159 6//// T03110178 56008 PNO $
KLUL 
38nm N 
162115Z AUTO 03010KT 10SM CLR 31/15 A3001 RMK A02 T03060151
KPQL 
40nm SE 
162053Z 26005KT 10SM BKN060 32/21 A2995 RMK AO2 SLP143 T03220211 56012
K0R0 
43nm NW 
162115Z AUTO 05008KT 10SM CLR 32/15 A3002 RMK AO2
TAF
KHBG 
26nm N 
161734Z 1618/1718 03007KT P6SM FEW060
KGPT 
26nm S 
161740Z 1618/1718 VRB03KT P6SM SKC FM161900 09007KT P6SM FEW090 FEW250
KBIX 
29nm SE 
161800Z 1618/1724 VRB06KT 9999 SCT200 QNH2994INS BECMG 1619/1620 14009KT 9999 FEW050 SCT200 QNH2992INS BECMG 1704/1705 VRB06KT 9999 FEW050 QNH2994INS TX33/1621Z TN24/1712Z
NOTAMs
Click for the latest NOTAMs
NOTAMs are issued by the DoD/FAA and will open in a separate window not controlled by AirNav.

 

 
 

FBO, Fuel Providers, and Aircraft Ground Support

  
 Business Name 
 
 Contact 
 
 Services / Description 
 
Fuel Prices
 
Comments
  
Dean Griffin Memorial Airport 601-928-6495
no information available

If you are affiliated with Dean Griffin Memorial Airport and would like to show here your services, contact info, web link, logo, and more, click here
100LL
SS $3.85 
 Updated 10-Jun-2021
 
   1 read write
SS=Self service
Update Fuel Prices
 

Would you like to see your business listed on this page?

 If your business provides an interesting product or service to pilots, flight crews, aircraft, or users of the Dean Griffin Memorial Airport, you should consider listing it here.  To start the listing process, click on the button below
 
Add a business
 

Other Pages about Dean Griffin Memorial Airport

Update a link
 
Copyright © AirNav, LLC. All rights reserved. Privacy Policy  Contact